sensor_id;sensor_type;location;lat;lon;timestamp;pressure;altitude;pressure_sealevel;temperature;humidity
41596;BME280;27283;52.504;13.358;2023-01-04T00:00:52;102209.50;;;6.36;75.54
41596;BME280;27283;52.504;13.358;2023-01-04T00:03:28;102210.75;;;6.30;76.32
41596;BME280;27283;52.504;13.358;2023-01-04T00:06:04;102200.06;;;6.30;76.28
41596;BME280;27283;52.504;13.358;2023-01-04T00:08:37;102190.50;;;6.41;75.77
41596;BME280;27283;52.504;13.358;2023-01-04T00:11:14;102190.03;;;6.34;75.92
41596;BME280;27283;52.504;13.358;2023-01-04T00:13:50;102183.16;;;6.57;75.56
41596;BME280;27283;52.504;13.358;2023-01-04T00:16:25;102177.69;;;6.59;75.25
41596;BME280;27283;52.504;13.358;2023-01-04T00:18:59;102172.38;;;6.59;75.23
41596;BME280;27283;52.504;13.358;2023-01-04T00:21:38;102175.88;;;6.59;75.31
41596;BME280;27283;52.504;13.358;2023-01-04T00:24:10;102171.97;;;6.25;76.95
41596;BME280;27283;52.504;13.358;2023-01-04T00:26:45;102160.47;;;6.50;75.61
41596;BME280;27283;52.504;13.358;2023-01-04T00:29:18;102157.91;;;6.61;75.21
41596;BME280;27283;52.504;13.358;2023-01-04T00:31:50;102159.63;;;6.62;75.28
41596;BME280;27283;52.504;13.358;2023-01-04T00:34:23;102143.03;;;6.44;75.79
41596;BME280;27283;52.504;13.358;2023-01-04T00:36:55;102135.78;;;6.46;76.03
41596;BME280;27283;52.504;13.358;2023-01-04T00:39:28;102137.28;;;6.63;75.19
41596;BME280;27283;52.504;13.358;2023-01-04T00:42:02;102131.72;;;6.53;75.69
41596;BME280;27283;52.504;13.358;2023-01-04T00:44:36;102124.34;;;6.70;75.27
41596;BME280;27283;52.504;13.358;2023-01-04T00:47:08;102130.25;;;6.75;74.88
41596;BME280;27283;52.504;13.358;2023-01-04T00:49:40;102129.38;;;6.87;74.16
41596;BME280;27283;52.504;13.358;2023-01-04T00:52:13;102117.59;;;6.64;74.93
41596;BME280;27283;52.504;13.358;2023-01-04T00:54:46;102114.84;;;6.53;75.50
41596;BME280;27283;52.504;13.358;2023-01-04T00:57:20;102101.03;;;6.59;75.53
41596;BME280;27283;52.504;13.358;2023-01-04T00:59:53;102095.81;;;6.57;75.21
41596;BME280;27283;52.504;13.358;2023-01-04T01:02:24;102069.50;;;6.51;75.90
41596;BME280;27283;52.504;13.358;2023-01-04T01:04:57;102084.69;;;6.77;74.69
41596;BME280;27283;52.504;13.358;2023-01-04T01:07:29;102080.72;;;6.82;74.22
41596;BME280;27283;52.504;13.358;2023-01-04T01:10:01;102079.44;;;6.62;75.08
41596;BME280;27283;52.504;13.358;2023-01-04T01:12:36;102091.09;;;6.74;74.61
41596;BME280;27283;52.504;13.358;2023-01-04T01:15:10;102080.19;;;6.77;74.48
41596;BME280;27283;52.504;13.358;2023-01-04T01:17:42;102079.91;;;6.69;74.95
41596;BME280;27283;52.504;13.358;2023-01-04T01:20:14;102082.84;;;6.64;74.88
41596;BME280;27283;52.504;13.358;2023-01-04T01:22:45;102084.69;;;6.77;74.14
41596;BME280;27283;52.504;13.358;2023-01-04T01:25:18;102079.66;;;6.85;73.95
41596;BME280;27283;52.504;13.358;2023-01-04T01:28:13;102068.53;;;6.78;73.54
41596;BME280;27283;52.504;13.358;2023-01-04T01:30:45;102076.03;;;6.73;74.18
41596;BME280;27283;52.504;13.358;2023-01-04T01:33:17;102074.22;;;6.73;73.80
41596;BME280;27283;52.504;13.358;2023-01-04T01:35:49;102077.41;;;6.79;73.69
41596;BME280;27283;52.504;13.358;2023-01-04T01:38:23;102080.09;;;6.79;73.52
41596;BME280;27283;52.504;13.358;2023-01-04T01:40:55;102079.84;;;6.17;75.81
41596;BME280;27283;52.504;13.358;2023-01-04T01:43:49;102074.41;;;6.19;76.17
41596;BME280;27283;52.504;13.358;2023-01-04T01:46:25;102077.94;;;6.32;75.23
41596;BME280;27283;52.504;13.358;2023-01-04T01:49:02;102077.84;;;6.47;74.78
41596;BME280;27283;52.504;13.358;2023-01-04T01:51:35;102082.13;;;6.24;75.09
41596;BME280;27283;52.504;13.358;2023-01-04T01:54:11;102078.81;;;6.33;75.26
41596;BME280;27283;52.504;13.358;2023-01-04T01:56:45;102094.31;;;6.41;74.18
41596;BME280;27283;52.504;13.358;2023-01-04T01:59:22;102085.00;;;6.33;74.84
41596;BME280;27283;52.504;13.358;2023-01-04T02:01:56;102080.19;;;6.26;75.27
41596;BME280;27283;52.504;13.358;2023-01-04T02:04:28;102073.03;;;6.39;74.73
41596;BME280;27283;52.504;13.358;2023-01-04T02:07:01;102067.25;;;6.19;75.02
41596;BME280;27283;52.504;13.358;2023-01-04T02:09:34;102058.06;;;5.83;76.48
41596;BME280;27283;52.504;13.358;2023-01-04T02:12:10;102056.88;;;6.28;75.28
41596;BME280;27283;52.504;13.358;2023-01-04T02:15:12;102037.97;;;6.31;74.39
41596;BME280;27283;52.504;13.358;2023-01-04T02:17:50;102025.06;;;6.12;75.45
41596;BME280;27283;52.504;13.358;2023-01-04T02:20:35;102006.66;;;6.20;74.97
41596;BME280;27283;52.504;13.358;2023-01-04T02:23:35;102002.50;;;6.03;75.19
41596;BME280;27283;52.504;13.358;2023-01-04T02:26:40;101990.56;;;5.68;76.10
41596;BME280;27283;52.504;13.358;2023-01-04T02:32:32;101968.63;;;5.91;75.44
41596;BME280;27283;52.504;13.358;2023-01-04T02:35:16;101969.56;;;5.90;75.44
41596;BME280;27283;52.504;13.358;2023-01-04T02:37:54;101970.50;;;5.76;75.98
41596;BME280;27283;52.504;13.358;2023-01-04T02:40:36;101965.06;;;5.77;75.70
41596;BME280;27283;52.504;13.358;2023-01-04T02:43:18;101944.34;;;5.68;76.14
41596;BME280;27283;52.504;13.358;2023-01-04T02:46:09;101938.69;;;5.73;76.04
41596;BME280;27283;52.504;13.358;2023-01-04T02:48:45;101932.66;;;5.43;77.11
41596;BME280;27283;52.504;13.358;2023-01-04T02:51:33;101928.88;;;5.60;76.69
41596;BME280;27283;52.504;13.358;2023-01-04T02:54:07;101940.91;;;5.66;76.23
41596;BME280;27283;52.504;13.358;2023-01-04T02:56:53;101946.69;;;5.73;76.19
41596;BME280;27283;52.504;13.358;2023-01-04T02:59:58;101935.59;;;5.92;75.11
41596;BME280;27283;52.504;13.358;2023-01-04T03:02:48;101928.13;;;5.84;75.14
41596;BME280;27283;52.504;13.358;2023-01-04T03:05:45;101921.75;;;5.33;77.21
41596;BME280;27283;52.504;13.358;2023-01-04T03:08:35;101915.28;;;5.50;77.45
41596;BME280;27283;52.504;13.358;2023-01-04T03:11:09;101908.28;;;5.75;75.74
41596;BME280;27283;52.504;13.358;2023-01-04T03:13:59;101893.09;;;5.50;77.21
41596;BME280;27283;52.504;13.358;2023-01-04T03:16:54;101900.53;;;5.45;77.78
41596;BME280;27283;52.504;13.358;2023-01-04T03:19:27;101899.47;;;5.35;78.31
41596;BME280;27283;52.504;13.358;2023-01-04T03:22:15;101889.88;;;5.45;77.86
41596;BME280;27283;52.504;13.358;2023-01-04T03:25:01;101899.72;;;5.57;77.41
41596;BME280;27283;52.504;13.358;2023-01-04T03:27:47;101892.97;;;5.39;77.49
41596;BME280;27283;52.504;13.358;2023-01-04T03:30:35;101880.84;;;5.60;77.56
41596;BME280;27283;52.504;13.358;2023-01-04T03:33:23;101879.75;;;5.50;77.46
41596;BME280;27283;52.504;13.358;2023-01-04T03:36:19;101867.91;;;5.28;78.20
41596;BME280;27283;52.504;13.358;2023-01-04T03:38:59;101859.91;;;5.54;77.32
41596;BME280;27283;52.504;13.358;2023-01-04T03:41:47;101857.25;;;5.54;77.54
41596;BME280;27283;52.504;13.358;2023-01-04T03:44:39;101853.06;;;5.50;77.71
41596;BME280;27283;52.504;13.358;2023-01-04T03:47:41;101830.66;;;5.40;78.08
41596;BME280;27283;52.504;13.358;2023-01-04T03:50:33;101836.94;;;5.26;78.76
41596;BME280;27283;52.504;13.358;2023-01-04T03:53:09;101835.56;;;5.46;77.68
41596;BME280;27283;52.504;13.358;2023-01-04T03:55:47;101832.78;;;5.47;77.95
41596;BME280;27283;52.504;13.358;2023-01-04T03:58:22;101831.94;;;5.47;77.58
41596;BME280;27283;52.504;13.358;2023-01-04T04:00:54;101811.88;;;5.41;77.71
41596;BME280;27283;52.504;13.358;2023-01-04T04:03:31;101798.53;;;5.15;78.89
41596;BME280;27283;52.504;13.358;2023-01-04T04:06:16;101811.53;;;5.07;79.03
41596;BME280;27283;52.504;13.358;2023-01-04T04:09:01;101803.13;;;5.26;78.87
41596;BME280;27283;52.504;13.358;2023-01-04T04:11:36;101793.81;;;5.19;78.78
41596;BME280;27283;52.504;13.358;2023-01-04T04:14:08;101795.78;;;5.30;78.29
41596;BME280;27283;52.504;13.358;2023-01-04T04:16:40;101789.16;;;5.23;78.61
41596;BME280;27283;52.504;13.358;2023-01-04T04:19:13;101776.88;;;5.59;77.20
41596;BME280;27283;52.504;13.358;2023-01-04T04:21:45;101768.88;;;5.46;77.25
41596;BME280;27283;52.504;13.358;2023-01-04T04:24:21;101764.31;;;5.35;77.99
41596;BME280;27283;52.504;13.358;2023-01-04T04:26:56;101761.00;;;5.31;77.91
41596;BME280;27283;52.504;13.358;2023-01-04T04:29:28;101750.66;;;5.27;78.38
41596;BME280;27283;52.504;13.358;2023-01-04T04:32:00;101751.81;;;5.48;77.55
41596;BME280;27283;52.504;13.358;2023-01-04T04:34:32;101744.44;;;5.26;78.22
41596;BME280;27283;52.504;13.358;2023-01-04T04:37:04;101736.47;;;5.39;78.12
41596;BME280;27283;52.504;13.358;2023-01-04T04:39:37;101739.97;;;5.53;77.56
41596;BME280;27283;52.504;13.358;2023-01-04T04:42:11;101727.06;;;5.96;75.65
41596;BME280;27283;52.504;13.358;2023-01-04T04:44:41;101718.59;;;5.65;76.33
41596;BME280;27283;52.504;13.358;2023-01-04T04:47:13;101718.53;;;5.41;77.49
41596;BME280;27283;52.504;13.358;2023-01-04T04:49:46;101699.34;;;5.36;77.94
41596;BME280;27283;52.504;13.358;2023-01-04T04:52:18;101683.94;;;5.53;77.59
41596;BME280;27283;52.504;13.358;2023-01-04T04:54:51;101674.41;;;5.61;76.99
41596;BME280;27283;52.504;13.358;2023-01-04T04:57:26;101675.84;;;5.41;77.80
41596;BME280;27283;52.504;13.358;2023-01-04T04:59:58;101675.19;;;5.50;78.02
41596;BME280;27283;52.504;13.358;2023-01-04T05:02:30;101674.03;;;5.42;77.80
41596;BME280;27283;52.504;13.358;2023-01-04T05:05:03;101658.13;;;5.53;78.18
41596;BME280;27283;52.504;13.358;2023-01-04T05:07:34;101650.72;;;5.57;77.61
41596;BME280;27283;52.504;13.358;2023-01-04T05:10:07;101647.13;;;5.58;77.70
41596;BME280;27283;52.504;13.358;2023-01-04T05:12:43;101642.41;;;5.98;76.33
41596;BME280;27283;52.504;13.358;2023-01-04T05:15:30;101648.06;;;5.94;76.11
41596;BME280;27283;52.504;13.358;2023-01-04T05:18:03;101631.34;;;5.79;76.96
41596;BME280;27283;52.504;13.358;2023-01-04T05:20:36;101620.56;;;5.80;77.09
41596;BME280;27283;52.504;13.358;2023-01-04T05:23:10;101610.97;;;6.02;76.02
41596;BME280;27283;52.504;13.358;2023-01-04T05:25:43;101608.00;;;6.18;76.02
41596;BME280;27283;52.504;13.358;2023-01-04T05:28:18;101606.34;;;6.28;75.23
41596;BME280;27283;52.504;13.358;2023-01-04T05:30:51;101603.31;;;6.33;74.74
41596;BME280;27283;52.504;13.358;2023-01-04T05:33:22;101592.94;;;6.64;73.94
41596;BME280;27283;52.504;13.358;2023-01-04T05:35:59;101587.06;;;6.47;74.28
41596;BME280;27283;52.504;13.358;2023-01-04T05:38:31;101574.84;;;6.67;73.79
41596;BME280;27283;52.504;13.358;2023-01-04T05:41:04;101555.03;;;6.70;73.53
41596;BME280;27283;52.504;13.358;2023-01-04T05:43:59;101549.94;;;6.55;74.05
41596;BME280;27283;52.504;13.358;2023-01-04T05:46:31;101545.44;;;6.79;73.16
41596;BME280;27283;52.504;13.358;2023-01-04T05:49:03;101541.31;;;6.63;73.94
41596;BME280;27283;52.504;13.358;2023-01-04T05:51:35;101531.84;;;6.70;73.57
41596;BME280;27283;52.504;13.358;2023-01-04T05:54:06;101528.91;;;6.62;73.85
41596;BME280;27283;52.504;13.358;2023-01-04T05:56:38;101526.72;;;6.56;74.19
41596;BME280;27283;52.504;13.358;2023-01-04T05:59:12;101516.03;;;6.33;75.45
41596;BME280;27283;52.504;13.358;2023-01-04T06:01:44;101518.47;;;6.48;74.81
41596;BME280;27283;52.504;13.358;2023-01-04T06:04:16;101514.69;;;6.50;74.94
41596;BME280;27283;52.504;13.358;2023-01-04T06:06:48;101516.88;;;6.45;74.88
41596;BME280;27283;52.504;13.358;2023-01-04T06:09:19;101504.75;;;6.52;74.83
41596;BME280;27283;52.504;13.358;2023-01-04T06:11:52;101502.56;;;6.69;74.28
41596;BME280;27283;52.504;13.358;2023-01-04T06:14:28;101500.72;;;6.92;73.24
41596;BME280;27283;52.504;13.358;2023-01-04T06:16:59;101499.41;;;6.52;74.74
41596;BME280;27283;52.504;13.358;2023-01-04T06:22:22;101487.72;;;6.76;74.06
41596;BME280;27283;52.504;13.358;2023-01-04T06:24:54;101477.16;;;6.74;73.77
41596;BME280;27283;52.504;13.358;2023-01-04T06:27:28;101474.50;;;6.86;73.50
41596;BME280;27283;52.504;13.358;2023-01-04T06:30:04;101460.00;;;7.00;73.08
41596;BME280;27283;52.504;13.358;2023-01-04T06:32:41;101451.19;;;7.20;72.37
41596;BME280;27283;52.504;13.358;2023-01-04T06:35:13;101452.41;;;7.49;70.96
41596;BME280;27283;52.504;13.358;2023-01-04T06:37:48;101449.66;;;7.39;71.13
41596;BME280;27283;52.504;13.358;2023-01-04T06:40:19;101431.28;;;7.13;72.43
41596;BME280;27283;52.504;13.358;2023-01-04T06:42:52;101428.78;;;7.21;71.61
41596;BME280;27283;52.504;13.358;2023-01-04T06:45:27;101432.09;;;7.25;71.81
41596;BME280;27283;52.504;13.358;2023-01-04T06:47:59;101435.59;;;7.25;71.99
41596;BME280;27283;52.504;13.358;2023-01-04T06:50:37;101426.03;;;7.44;71.02
41596;BME280;27283;52.504;13.358;2023-01-04T06:53:09;101426.50;;;7.49;70.97
41596;BME280;27283;52.504;13.358;2023-01-04T06:55:42;101408.97;;;7.56;70.56
41596;BME280;27283;52.504;13.358;2023-01-04T06:58:15;101412.13;;;7.71;69.93
41596;BME280;27283;52.504;13.358;2023-01-04T07:00:50;101399.22;;;7.55;70.17
41596;BME280;27283;52.504;13.358;2023-01-04T07:03:22;101407.78;;;7.70;70.12
41596;BME280;27283;52.504;13.358;2023-01-04T07:06:03;101403.84;;;7.74;69.38
41596;BME280;27283;52.504;13.358;2023-01-04T07:08:36;101390.66;;;7.83;69.02
41596;BME280;27283;52.504;13.358;2023-01-04T07:11:07;101396.94;;;7.93;69.07
41596;BME280;27283;52.504;13.358;2023-01-04T07:13:39;101397.06;;;8.22;68.08
41596;BME280;27283;52.504;13.358;2023-01-04T07:16:16;101388.19;;;8.22;69.80
41596;BME280;27283;52.504;13.358;2023-01-04T07:18:48;101377.94;;;8.37;69.15
41596;BME280;27283;52.504;13.358;2023-01-04T07:21:19;101372.13;;;8.31;69.58
41596;BME280;27283;52.504;13.358;2023-01-04T07:24:00;101365.38;;;8.27;71.36
41596;BME280;27283;52.504;13.358;2023-01-04T07:26:32;101363.81;;;8.34;71.58
41596;BME280;27283;52.504;13.358;2023-01-04T07:29:05;101358.31;;;8.26;70.74
41596;BME280;27283;52.504;13.358;2023-01-04T07:31:50;101350.09;;;7.87;74.83
41596;BME280;27283;52.504;13.358;2023-01-04T07:34:24;101346.28;;;8.11;74.61
41596;BME280;27283;52.504;13.358;2023-01-04T07:36:57;101343.03;;;8.17;74.81
41596;BME280;27283;52.504;13.358;2023-01-04T07:39:29;101331.94;;;7.91;75.16
41596;BME280;27283;52.504;13.358;2023-01-04T07:42:01;101337.00;;;7.94;75.92
41596;BME280;27283;52.504;13.358;2023-01-04T07:44:34;101331.06;;;7.80;75.94
41596;BME280;27283;52.504;13.358;2023-01-04T07:47:09;101331.72;;;8.13;76.07
41596;BME280;27283;52.504;13.358;2023-01-04T07:49:42;101321.00;;;7.73;77.97
41596;BME280;27283;52.504;13.358;2023-01-04T07:52:16;101310.47;;;7.81;78.23
41596;BME280;27283;52.504;13.358;2023-01-04T07:54:49;101310.84;;;7.97;78.34
41596;BME280;27283;52.504;13.358;2023-01-04T07:57:21;101296.50;;;7.77;79.36
41596;BME280;27283;52.504;13.358;2023-01-04T07:59:53;101278.69;;;7.67;79.27
41596;BME280;27283;52.504;13.358;2023-01-04T08:05:18;101275.25;;;7.86;80.44
41596;BME280;27283;52.504;13.358;2023-01-04T08:07:52;101270.00;;;7.43;82.68
41596;BME280;27283;52.504;13.358;2023-01-04T08:10:24;101268.84;;;7.36;83.05
41596;BME280;27283;52.504;13.358;2023-01-04T08:12:57;101247.75;;;7.74;81.61
41596;BME280;27283;52.504;13.358;2023-01-04T08:15:29;101252.69;;;7.78;81.89
41596;BME280;27283;52.504;13.358;2023-01-04T08:18:01;101244.97;;;7.85;82.97
41596;BME280;27283;52.504;13.358;2023-01-04T08:20:36;101241.91;;;7.59;83.81
41596;BME280;27283;52.504;13.358;2023-01-04T08:23:07;101232.53;;;7.43;85.06
41596;BME280;27283;52.504;13.358;2023-01-04T08:25:39;101231.81;;;7.72;84.15
41596;BME280;27283;52.504;13.358;2023-01-04T08:28:10;101239.06;;;7.91;83.86
41596;BME280;27283;52.504;13.358;2023-01-04T08:30:42;101243.28;;;7.84;84.25
41596;BME280;27283;52.504;13.358;2023-01-04T08:33:15;101232.00;;;7.80;84.51
41596;BME280;27283;52.504;13.358;2023-01-04T08:35:50;101235.56;;;7.60;86.55
41596;BME280;27283;52.504;13.358;2023-01-04T08:38:24;101229.00;;;7.74;85.38
41596;BME280;27283;52.504;13.358;2023-01-04T08:41:16;101215.38;;;7.87;85.48
41596;BME280;27283;52.504;13.358;2023-01-04T08:44:08;101223.72;;;7.53;87.80
41596;BME280;27283;52.504;13.358;2023-01-04T08:46:40;101223.56;;;7.54;88.29
41596;BME280;27283;52.504;13.358;2023-01-04T08:49:12;101214.16;;;7.60;88.59
41596;BME280;27283;52.504;13.358;2023-01-04T08:51:47;101214.97;;;7.91;86.38
41596;BME280;27283;52.504;13.358;2023-01-04T08:54:18;101228.63;;;7.88;86.68
41596;BME280;27283;52.504;13.358;2023-01-04T08:56:50;101206.22;;;7.89;87.12
41596;BME280;27283;52.504;13.358;2023-01-04T08:59:22;101205.19;;;7.71;87.51
41596;BME280;27283;52.504;13.358;2023-01-04T09:01:53;101213.72;;;7.55;89.27
41596;BME280;27283;52.504;13.358;2023-01-04T09:04:32;101212.66;;;7.77;89.13
41596;BME280;27283;52.504;13.358;2023-01-04T09:07:07;101209.22;;;7.96;87.84
41596;BME280;27283;52.504;13.358;2023-01-04T09:09:39;101216.03;;;8.29;86.64
41596;BME280;27283;52.504;13.358;2023-01-04T09:12:10;101211.38;;;8.22;86.51
41596;BME280;27283;52.504;13.358;2023-01-04T09:14:42;101195.41;;;8.10;86.78
41596;BME280;27283;52.504;13.358;2023-01-04T09:17:15;101178.75;;;7.97;87.85
41596;BME280;27283;52.504;13.358;2023-01-04T09:19:47;101194.81;;;7.87;89.33
41596;BME280;27283;52.504;13.358;2023-01-04T09:22:21;101190.03;;;8.10;88.65
41596;BME280;27283;52.504;13.358;2023-01-04T09:24:52;101182.47;;;8.15;89.15
41596;BME280;27283;52.504;13.358;2023-01-04T09:27:24;101180.03;;;8.03;88.98
41596;BME280;27283;52.504;13.358;2023-01-04T09:29:56;101171.75;;;8.35;86.96
41596;BME280;27283;52.504;13.358;2023-01-04T09:32:29;101162.84;;;8.15;88.79
41596;BME280;27283;52.504;13.358;2023-01-04T09:35:00;101159.16;;;7.87;89.71
41596;BME280;27283;52.504;13.358;2023-01-04T09:37:35;101166.75;;;7.81;91.67
41596;BME280;27283;52.504;13.358;2023-01-04T09:40:11;101149.00;;;7.90;89.82
41596;BME280;27283;52.504;13.358;2023-01-04T09:42:51;101138.13;;;7.72;91.25
41596;BME280;27283;52.504;13.358;2023-01-04T09:45:43;101133.09;;;7.89;91.49
41596;BME280;27283;52.504;13.358;2023-01-04T09:48:18;101122.22;;;7.71;92.10
41596;BME280;27283;52.504;13.358;2023-01-04T09:50:56;101119.69;;;7.89;92.55
41596;BME280;27283;52.504;13.358;2023-01-04T09:53:37;101126.44;;;7.83;91.95
41596;BME280;27283;52.504;13.358;2023-01-04T09:56:17;101129.00;;;7.85;92.52
41596;BME280;27283;52.504;13.358;2023-01-04T09:58:53;101114.03;;;7.72;93.47
41596;BME280;27283;52.504;13.358;2023-01-04T10:01:29;101120.53;;;7.89;93.78
41596;BME280;27283;52.504;13.358;2023-01-04T10:04:12;101102.38;;;8.12;91.60
41596;BME280;27283;52.504;13.358;2023-01-04T10:06:46;101101.09;;;8.16;91.61
41596;BME280;27283;52.504;13.358;2023-01-04T10:09:23;101090.94;;;8.10;91.31
41596;BME280;27283;52.504;13.358;2023-01-04T10:12:12;101082.78;;;7.92;92.96
41596;BME280;27283;52.504;13.358;2023-01-04T10:14:58;101080.66;;;7.86;94.64
41596;BME280;27283;52.504;13.358;2023-01-04T10:17:53;101081.66;;;7.95;94.06
41596;BME280;27283;52.504;13.358;2023-01-04T10:20:59;101067.00;;;7.99;93.04
41596;BME280;27283;52.504;13.358;2023-01-04T10:24:06;101055.56;;;7.97;94.24
41596;BME280;27283;52.504;13.358;2023-01-04T10:26:48;101049.09;;;7.90;94.09
41596;BME280;27283;52.504;13.358;2023-01-04T10:29:44;101047.84;;;8.04;93.10
41596;BME280;27283;52.504;13.358;2023-01-04T10:32:28;101043.31;;;7.85;95.22
41596;BME280;27283;52.504;13.358;2023-01-04T10:35:16;101037.81;;;8.15;93.24
41596;BME280;27283;52.504;13.358;2023-01-04T10:37:52;101045.28;;;8.02;94.65
41596;BME280;27283;52.504;13.358;2023-01-04T10:40:32;101026.97;;;8.17;93.62
41596;BME280;27283;52.504;13.358;2023-01-04T10:43:20;101010.03;;;7.97;95.09
41596;BME280;27283;52.504;13.358;2023-01-04T10:46:01;101009.53;;;7.84;94.82
41596;BME280;27283;52.504;13.358;2023-01-04T10:48:45;101008.78;;;7.81;96.23
41596;BME280;27283;52.504;13.358;2023-01-04T10:51:27;100993.84;;;8.08;95.10
41596;BME280;27283;52.504;13.358;2023-01-04T10:54:12;100989.31;;;8.19;93.61
41596;BME280;27283;52.504;13.358;2023-01-04T10:56:52;100995.53;;;8.09;92.76
41596;BME280;27283;52.504;13.358;2023-01-04T10:59:42;100987.91;;;8.14;93.70
41596;BME280;27283;52.504;13.358;2023-01-04T11:02:24;100977.03;;;8.73;90.15
41596;BME280;27283;52.504;13.358;2023-01-04T11:05:03;100978.06;;;8.62;89.80
41596;BME280;27283;52.504;13.358;2023-01-04T11:07:39;100962.28;;;8.59;90.23
41596;BME280;27283;52.504;13.358;2023-01-04T11:10:16;100962.97;;;8.61;89.55
41596;BME280;27283;52.504;13.358;2023-01-04T11:12:51;100952.94;;;8.63;90.34
41596;BME280;27283;52.504;13.358;2023-01-04T11:15:28;100950.22;;;8.73;88.28
41596;BME280;27283;52.504;13.358;2023-01-04T11:18:02;100939.38;;;8.65;89.58
41596;BME280;27283;52.504;13.358;2023-01-04T11:20:36;100933.44;;;8.71;90.57
41596;BME280;27283;52.504;13.358;2023-01-04T11:23:13;100932.06;;;8.57;91.12
41596;BME280;27283;52.504;13.358;2023-01-04T11:25:52;100934.16;;;8.91;89.33
41596;BME280;27283;52.504;13.358;2023-01-04T11:28:29;100931.47;;;8.63;90.54
41596;BME280;27283;52.504;13.358;2023-01-04T11:31:17;100931.53;;;8.81;90.62
41596;BME280;27283;52.504;13.358;2023-01-04T11:33:55;100925.59;;;9.05;88.44
41596;BME280;27283;52.504;13.358;2023-01-04T11:36:34;100929.66;;;9.10;88.65
41596;BME280;27283;52.504;13.358;2023-01-04T11:39:17;100926.19;;;8.99;87.80
41596;BME280;27283;52.504;13.358;2023-01-04T11:41:54;100908.91;;;8.94;89.66
41596;BME280;27283;52.504;13.358;2023-01-04T11:44:33;100912.91;;;9.26;88.38
41596;BME280;27283;52.504;13.358;2023-01-04T11:47:17;100914.94;;;8.96;90.37
41596;BME280;27283;52.504;13.358;2023-01-04T11:49:55;100906.34;;;8.74;90.91
41596;BME280;27283;52.504;13.358;2023-01-04T11:52:29;100907.72;;;8.50;93.63
41596;BME280;27283;52.504;13.358;2023-01-04T11:55:22;100893.28;;;8.61;93.46
41596;BME280;27283;52.504;13.358;2023-01-04T11:58:07;100891.31;;;8.81;90.86
41596;BME280;27283;52.504;13.358;2023-01-04T12:00:50;100886.56;;;8.75;92.21
41596;BME280;27283;52.504;13.358;2023-01-04T12:03:41;100875.78;;;8.85;92.61
41596;BME280;27283;52.504;13.358;2023-01-04T12:06:17;100865.63;;;8.61;92.91
41596;BME280;27283;52.504;13.358;2023-01-04T12:08:51;100857.94;;;8.76;93.38
41596;BME280;27283;52.504;13.358;2023-01-04T12:11:27;100864.16;;;9.12;92.15
41596;BME280;27283;52.504;13.358;2023-01-04T12:14:01;100854.66;;;9.18;89.34
41596;BME280;27283;52.504;13.358;2023-01-04T12:16:43;100864.66;;;8.80;92.52
41596;BME280;27283;52.504;13.358;2023-01-04T12:19:25;100849.25;;;8.64;93.33
41596;BME280;27283;52.504;13.358;2023-01-04T12:22:01;100844.59;;;9.02;91.38
41596;BME280;27283;52.504;13.358;2023-01-04T12:24:34;100850.44;;;9.15;90.96
41596;BME280;27283;52.504;13.358;2023-01-04T12:27:13;100846.03;;;9.32;90.82
41596;BME280;27283;52.504;13.358;2023-01-04T12:29:55;100836.13;;;9.33;91.51
41596;BME280;27283;52.504;13.358;2023-01-04T12:32:43;100838.97;;;9.31;91.35
41596;BME280;27283;52.504;13.358;2023-01-04T12:42:13;100820.78;;;9.43;90.51
41596;BME280;27283;52.504;13.358;2023-01-04T12:45:14;100823.31;;;9.45;90.31
41596;BME280;27283;52.504;13.358;2023-01-04T12:47:49;100815.75;;;9.22;90.91
41596;BME280;27283;52.504;13.358;2023-01-04T12:54:22;100790.31;;;9.26;91.31
41596;BME280;27283;52.504;13.358;2023-01-04T12:57:24;100788.59;;;8.99;91.88
41596;BME280;27283;52.504;13.358;2023-01-04T13:00:07;100793.84;;;9.09;93.15
41596;BME280;27283;52.504;13.358;2023-01-04T13:02:41;100789.09;;;9.02;94.35
41596;BME280;27283;52.504;13.358;2023-01-04T13:05:41;100793.19;;;9.33;92.43
41596;BME280;27283;52.504;13.358;2023-01-04T13:08:27;100780.06;;;9.03;93.38
41596;BME280;27283;52.504;13.358;2023-01-04T13:11:03;100780.53;;;9.17;93.98
41596;BME280;27283;52.504;13.358;2023-01-04T13:13:44;100768.91;;;9.61;91.96
41596;BME280;27283;52.504;13.358;2023-01-04T13:16:26;100763.84;;;9.57;91.51
41596;BME280;27283;52.504;13.358;2023-01-04T13:19:08;100751.63;;;9.11;92.51
41596;BME280;27283;52.504;13.358;2023-01-04T13:21:43;100755.75;;;9.23;93.38
41596;BME280;27283;52.504;13.358;2023-01-04T13:24:20;100746.13;;;9.12;93.15
41596;BME280;27283;52.504;13.358;2023-01-04T13:26:54;100743.75;;;9.35;93.66
41596;BME280;27283;52.504;13.358;2023-01-04T13:29:31;100737.97;;;9.48;92.92
41596;BME280;27283;52.504;13.358;2023-01-04T13:32:09;100735.75;;;9.17;93.16
41596;BME280;27283;52.504;13.358;2023-01-04T13:34:48;100741.13;;;9.17;93.24
41596;BME280;27283;52.504;13.358;2023-01-04T13:37:27;100737.22;;;9.12;94.33
41596;BME280;27283;52.504;13.358;2023-01-04T13:40:14;100733.28;;;9.24;92.73
41596;BME280;27283;52.504;13.358;2023-01-04T13:43:12;100734.59;;;9.20;93.74
41596;BME280;27283;52.504;13.358;2023-01-04T13:46:12;100726.50;;;9.38;92.59
41596;BME280;27283;52.504;13.358;2023-01-04T13:48:49;100728.44;;;9.28;92.62
41596;BME280;27283;52.504;13.358;2023-01-04T13:51:23;100726.91;;;9.51;91.13
41596;BME280;27283;52.504;13.358;2023-01-04T13:54:15;100727.50;;;9.71;90.64
41596;BME280;27283;52.504;13.358;2023-01-04T13:56:48;100721.31;;;9.71;89.54
41596;BME280;27283;52.504;13.358;2023-01-04T13:59:23;100715.31;;;9.51;91.26
41596;BME280;27283;52.504;13.358;2023-01-04T14:01:58;100712.84;;;9.31;93.38
41596;BME280;27283;52.504;13.358;2023-01-04T14:04:32;100723.19;;;9.44;93.67